createdAt,value
2018-12-20T00:01:23.964Z,22.00
2018-12-20T00:03:52.157Z,21.87
2018-12-20T00:06:20.914Z,22.77
2018-12-20T00:08:49.119Z,25.20
2018-12-20T00:11:17.282Z,22.40
2018-12-20T00:13:45.368Z,22.13
2018-12-20T00:16:13.638Z,22.13
2018-12-20T00:18:41.916Z,22.20
2018-12-20T00:21:10.059Z,24.37
2018-12-20T00:23:38.200Z,23.73
2018-12-20T00:26:06.321Z,23.60
2018-12-20T00:28:34.573Z,24.80
2018-12-20T00:31:03.276Z,24.03
2018-12-20T00:33:31.703Z,23.83
2018-12-20T00:35:59.966Z,24.67
2018-12-20T00:38:28.091Z,24.87
2018-12-20T00:40:57.075Z,23.60
2018-12-20T00:43:25.183Z,24.83
2018-12-20T00:45:53.276Z,22.23
2018-12-20T00:48:21.431Z,24.63
2018-12-20T00:50:49.686Z,27.10
2018-12-20T00:53:17.879Z,22.97
2018-12-20T00:55:46.007Z,26.10
2018-12-20T00:58:14.189Z,24.90
2018-12-20T01:00:42.465Z,22.00
2018-12-20T01:03:10.582Z,25.20
2018-12-20T01:05:38.755Z,24.40
2018-12-20T01:08:07.002Z,22.63
2018-12-20T01:10:35.273Z,23.83
2018-12-20T01:13:03.793Z,23.37
2018-12-20T01:15:32.101Z,23.93
2018-12-20T01:18:00.244Z,23.20
2018-12-20T01:20:28.322Z,25.10
2018-12-20T01:22:56.412Z,23.90
2018-12-20T01:25:24.678Z,24.77
2018-12-20T01:27:53.559Z,22.90
2018-12-20T01:30:21.648Z,22.47
2018-12-20T01:32:49.976Z,22.37
2018-12-20T01:35:18.163Z,23.77
2018-12-20T01:37:46.414Z,24.30
2018-12-20T01:40:14.626Z,23.23
2018-12-20T01:42:42.912Z,25.73
2018-12-20T01:45:11.025Z,25.80
2018-12-20T01:47:39.148Z,23.33
2018-12-20T01:50:07.981Z,24.97
2018-12-20T01:52:36.276Z,25.00
2018-12-20T01:55:05.066Z,24.80
2018-12-20T01:57:33.327Z,24.70
2018-12-20T02:00:01.594Z,24.67
2018-12-20T02:02:30.276Z,24.93
2018-12-20T02:04:58.465Z,25.97
2018-12-20T02:07:26.727Z,22.80
2018-12-20T02:09:54.959Z,24.43
2018-12-20T02:12:23.423Z,22.97
2018-12-20T02:14:51.804Z,22.93
2018-12-20T02:17:20.059Z,24.10
2018-12-20T02:19:48.315Z,25.10
2018-12-20T02:22:16.572Z,21.83
2018-12-20T02:24:44.770Z,20.70
2018-12-20T02:27:12.902Z,22.90
2018-12-20T02:29:40.989Z,23.00
2018-12-20T02:32:09.104Z,21.53
2018-12-20T02:34:37.254Z,22.60
2018-12-20T02:37:06.118Z,22.17
2018-12-20T02:39:34.192Z,20.47
2018-12-20T02:42:02.479Z,21.50
2018-12-20T02:44:31.215Z,21.97
2018-12-20T02:46:59.354Z,22.77
2018-12-20T02:49:27.527Z,23.07
2018-12-20T02:51:55.692Z,22.43
2018-12-20T02:54:24.273Z,22.27
2018-12-20T02:56:52.625Z,21.60
2018-12-20T02:59:20.769Z,22.27
2018-12-20T03:01:48.943Z,20.93
2018-12-20T03:04:17.074Z,22.37
2018-12-20T03:06:45.179Z,22.90
2018-12-20T03:09:13.397Z,23.67
2018-12-20T03:11:42.012Z,23.97
2018-12-20T03:14:10.104Z,20.50
2018-12-20T03:16:38.668Z,22.03
2018-12-20T03:19:07.508Z,21.57
2018-12-20T03:21:35.749Z,22.10
2018-12-20T03:24:04.679Z,21.77
2018-12-20T03:26:33.746Z,21.77
2018-12-20T03:29:02.000Z,19.53
2018-12-20T03:31:30.442Z,21.13
2018-12-20T03:33:58.635Z,20.40
2018-12-20T03:36:26.729Z,20.43
2018-12-20T03:38:54.788Z,20.30
2018-12-20T03:41:22.868Z,20.27
2018-12-20T03:43:50.899Z,19.40
2018-12-20T03:46:19.124Z,20.30
2018-12-20T03:48:47.369Z,19.70
2018-12-20T03:51:15.667Z,19.00
2018-12-20T03:53:43.953Z,18.27
2018-12-20T03:56:12.392Z,19.80
2018-12-20T03:58:40.725Z,19.43
2018-12-20T04:01:09.388Z,18.13
2018-12-20T04:03:37.567Z,19.00
2018-12-20T04:06:05.853Z,17.87
2018-12-20T04:08:34.052Z,20.03
2018-12-20T04:11:02.389Z,18.50
2018-12-20T04:13:30.647Z,17.03
2018-12-20T04:15:58.886Z,17.17
2018-12-20T04:18:27.636Z,19.20
2018-12-20T04:20:55.866Z,18.20
2018-12-20T04:23:24.004Z,18.70
2018-12-20T04:25:52.301Z,18.87
2018-12-20T04:28:20.475Z,19.17
2018-12-20T04:30:48.804Z,18.50
2018-12-20T04:33:17.067Z,19.37
2018-12-20T04:35:45.254Z,18.83
2018-12-20T04:38:13.360Z,20.40
2018-12-20T04:40:42.710Z,18.47
2018-12-20T04:43:11.128Z,17.80
2018-12-20T04:45:46.696Z,19.70
2018-12-20T04:48:09.844Z,18.67
2018-12-20T04:50:38.646Z,20.33
2018-12-20T04:53:07.777Z,19.70
2018-12-20T04:55:36.062Z,20.10
2018-12-20T04:58:04.634Z,19.40
2018-12-20T05:00:33.102Z,19.73
2018-12-20T05:03:01.259Z,18.23
2018-12-20T05:05:29.432Z,18.70
2018-12-20T05:07:57.550Z,18.63
2018-12-20T05:10:26.055Z,18.50
2018-12-20T05:12:54.605Z,18.17
2018-12-20T05:15:22.779Z,19.30
2018-12-20T05:17:50.968Z,18.77
2018-12-20T05:20:19.100Z,18.40
2018-12-20T05:22:47.383Z,17.30
2018-12-20T05:25:15.543Z,17.80
2018-12-20T05:27:43.863Z,18.70
2018-12-20T05:30:12.184Z,18.03
2018-12-20T05:32:40.620Z,18.60
2018-12-20T05:35:08.772Z,18.03
2018-12-20T05:37:37.707Z,19.90
2018-12-20T05:40:06.667Z,18.80
2018-12-20T05:42:34.954Z,18.87
2018-12-20T05:45:03.927Z,18.50
2018-12-20T05:47:32.101Z,18.40
2018-12-20T05:50:00.192Z,17.90
2018-12-20T05:52:28.300Z,18.63
2018-12-20T05:54:57.065Z,17.97
2018-12-20T05:57:25.216Z,18.83
2018-12-20T05:59:53.403Z,17.90
2018-12-20T06:02:21.648Z,19.03
2018-12-20T06:04:49.872Z,18.33
2018-12-20T06:07:18.030Z,18.97
2018-12-20T06:09:46.093Z,18.87
2018-12-20T06:12:14.280Z,18.33
2018-12-20T06:14:42.543Z,18.83
2018-12-20T06:17:10.888Z,18.23
2018-12-20T06:19:39.014Z,17.57
2018-12-20T06:22:07.443Z,20.33
2018-12-20T06:24:35.664Z,18.90
2018-12-20T06:27:03.747Z,18.13
2018-12-20T06:29:32.748Z,17.90
2018-12-20T06:32:00.896Z,18.80
2018-12-20T06:34:29.047Z,19.13
2018-12-20T06:36:57.145Z,18.83
2018-12-20T06:39:25.175Z,16.53
2018-12-20T06:41:53.295Z,19.20
2018-12-20T06:44:21.381Z,18.40
2018-12-20T06:46:50.055Z,21.07
2018-12-20T06:49:18.227Z,20.70
2018-12-20T06:51:46.268Z,20.57
2018-12-20T06:54:14.380Z,21.70
2018-12-20T06:56:42.447Z,20.33
2018-12-20T06:59:10.621Z,20.80
2018-12-20T07:01:39.516Z,19.00
2018-12-20T07:04:07.588Z,18.83
2018-12-20T07:06:35.759Z,19.70
2018-12-20T07:09:06.596Z,19.30
2018-12-20T07:11:34.639Z,20.30
2018-12-20T07:14:03.037Z,20.20
2018-12-20T07:16:31.436Z,17.97
2018-12-20T07:18:59.507Z,20.30
2018-12-20T07:21:27.557Z,18.03
2018-12-20T07:23:55.647Z,17.27
2018-12-20T07:26:23.728Z,18.33
2018-12-20T07:28:52.108Z,16.07
2018-12-20T07:31:20.700Z,17.47
2018-12-20T07:33:48.816Z,17.07
2018-12-20T07:36:17.256Z,17.10
2018-12-20T07:38:45.321Z,19.73
2018-12-20T07:41:13.520Z,19.57
2018-12-20T07:43:41.555Z,19.40
2018-12-20T07:46:09.641Z,19.33
2018-12-20T07:48:37.760Z,18.67
2018-12-20T07:51:05.908Z,19.27
2018-12-20T07:53:33.944Z,18.33
2018-12-20T07:56:02.040Z,19.23
2018-12-20T07:58:30.112Z,18.50
2018-12-20T08:01:00.215Z,18.00
2018-12-20T08:03:28.267Z,17.30
2018-12-20T08:05:56.375Z,16.17
2018-12-20T08:08:24.555Z,15.27
2018-12-20T08:10:52.608Z,16.03
2018-12-20T08:13:21.517Z,16.73
2018-12-20T08:15:50.730Z,15.90
2018-12-20T08:18:18.988Z,15.67
2018-12-20T08:20:47.024Z,16.60
2018-12-20T08:23:15.155Z,15.37
2018-12-20T08:25:44.123Z,15.23
2018-12-20T08:28:12.612Z,14.17
2018-12-20T08:30:40.715Z,13.63
2018-12-20T08:33:08.972Z,14.73
2018-12-20T08:35:37.732Z,14.40
2018-12-20T08:38:05.845Z,14.00
2018-12-20T08:40:34.021Z,14.23
2018-12-20T08:43:02.085Z,12.53
2018-12-20T08:45:30.156Z,13.33
2018-12-20T08:47:58.228Z,13.30
2018-12-20T08:50:26.304Z,12.93
2018-12-20T08:52:55.047Z,12.60
2018-12-20T08:55:23.110Z,13.20
2018-12-20T08:57:51.245Z,13.10
2018-12-20T09:00:19.316Z,15.50
2018-12-20T09:02:47.391Z,16.00
2018-12-20T09:05:15.464Z,16.10
2018-12-20T09:07:43.535Z,19.30
2018-12-20T09:10:11.636Z,17.57
2018-12-20T09:12:39.673Z,16.60
2018-12-20T09:15:07.756Z,15.63
2018-12-20T09:17:35.828Z,15.70
2018-12-20T09:20:05.564Z,13.17
2018-12-20T09:22:34.129Z,15.07
2018-12-20T09:25:02.273Z,14.00
2018-12-20T09:27:30.347Z,13.60
2018-12-20T09:29:58.459Z,12.70
2018-12-20T09:32:26.621Z,13.20
2018-12-20T09:34:54.743Z,11.60
2018-12-20T09:37:22.753Z,11.50
2018-12-20T09:39:51.246Z,10.40
2018-12-20T09:42:19.503Z,9.90
2018-12-20T09:44:47.520Z,10.77
2018-12-20T09:47:21.336Z,10.03
2018-12-20T09:49:49.448Z,9.40
2018-12-20T09:52:17.645Z,9.07
2018-12-20T09:54:45.726Z,10.00
2018-12-20T09:57:14.096Z,8.57
2018-12-20T09:59:42.165Z,9.10
2018-12-20T10:02:10.495Z,8.90
2018-12-20T10:04:38.629Z,8.37
2018-12-20T10:07:06.800Z,8.93
2018-12-20T10:09:34.880Z,8.53
2018-12-20T10:12:02.946Z,8.10
2018-12-20T10:14:31.132Z,6.83
2018-12-20T10:16:59.301Z,7.30
2018-12-20T10:19:27.387Z,6.10
2018-12-20T10:21:55.461Z,5.47
2018-12-20T10:24:23.724Z,5.90
2018-12-20T10:26:51.799Z,5.67
2018-12-20T10:29:19.848Z,5.30
2018-12-20T10:31:47.932Z,5.30
2018-12-20T10:34:16.011Z,5.50
2018-12-20T10:36:44.185Z,4.80
2018-12-20T10:39:12.764Z,6.33
2018-12-20T10:41:40.831Z,5.17
2018-12-20T10:44:08.864Z,5.50
2018-12-20T10:46:36.899Z,6.30
2018-12-20T10:49:04.948Z,5.73
2018-12-20T10:51:33.037Z,4.67
2018-12-20T10:54:01.108Z,4.10
2018-12-20T10:56:29.180Z,4.67
2018-12-20T10:58:57.239Z,4.40
2018-12-20T11:01:31.068Z,4.50
2018-12-20T11:04:04.880Z,3.37
2018-12-20T11:06:38.832Z,4.00
2018-12-20T11:09:12.784Z,3.30
2018-12-20T11:11:46.601Z,3.17
2018-12-20T11:14:14.679Z,3.20
2018-12-20T11:16:42.741Z,3.30
2018-12-20T11:19:10.904Z,2.87
2018-12-20T11:21:38.991Z,3.03
2018-12-20T11:24:07.168Z,2.30
2018-12-20T11:26:35.240Z,2.30
2018-12-20T11:29:04.121Z,2.47
2018-12-20T11:31:32.208Z,2.50
2018-12-20T11:34:00.289Z,2.57
2018-12-20T11:36:28.347Z,2.80
2018-12-20T11:38:56.481Z,1.70
2018-12-20T11:41:24.629Z,2.20
2018-12-20T11:43:52.776Z,2.20
2018-12-20T11:46:20.854Z,2.33
2018-12-20T11:48:48.896Z,2.23
2018-12-20T11:51:16.987Z,2.50
2018-12-20T11:53:45.044Z,2.13
2018-12-20T11:56:13.094Z,2.57
2018-12-20T11:58:41.213Z,1.80
2018-12-20T12:01:09.283Z,1.40
2018-12-20T12:03:38.604Z,1.57
2018-12-20T12:06:06.787Z,2.37
2018-12-20T12:08:35.272Z,1.83
2018-12-20T12:11:03.424Z,1.63
2018-12-20T12:13:31.496Z,1.90
2018-12-20T12:15:59.577Z,2.93
2018-12-20T12:18:27.751Z,1.40
2018-12-20T12:20:55.826Z,1.67
2018-12-20T12:23:23.847Z,1.63
2018-12-20T12:25:51.910Z,2.07
2018-12-20T12:28:20.849Z,1.83
2018-12-20T12:30:49.240Z,1.93
2018-12-20T12:33:17.304Z,1.80
2018-12-20T12:35:45.879Z,1.37
2018-12-20T12:38:14.058Z,1.90
2018-12-20T12:40:42.244Z,1.90
2018-12-20T12:43:10.319Z,1.63
2018-12-20T12:45:38.392Z,1.50
2018-12-20T12:48:06.460Z,1.50
2018-12-20T12:50:34.540Z,2.20
2018-12-20T12:53:02.607Z,1.90
2018-12-20T12:55:30.639Z,1.73
2018-12-20T12:58:04.599Z,1.30
2018-12-20T13:00:29.173Z,1.70
2018-12-20T13:02:57.232Z,1.40
2018-12-20T13:05:25.331Z,1.90
2018-12-20T13:07:54.283Z,2.40
2018-12-20T13:10:22.798Z,1.30
2018-12-20T13:12:50.884Z,1.07
2018-12-20T13:15:19.524Z,1.40
2018-12-20T13:17:47.533Z,1.37
2018-12-20T13:20:16.113Z,1.50
2018-12-20T13:22:44.295Z,1.60
2018-12-20T13:25:12.548Z,1.57
2018-12-20T13:27:40.584Z,2.13
2018-12-20T13:30:09.864Z,1.53
2018-12-20T13:32:38.959Z,1.87
2018-12-20T13:35:07.007Z,1.67
2018-12-20T13:37:35.099Z,1.27
2018-12-20T13:40:04.084Z,1.63
2018-12-20T13:42:32.181Z,1.30
2018-12-20T13:45:00.212Z,1.90
2018-12-20T13:47:28.400Z,1.57
2018-12-20T13:49:56.480Z,1.70
2018-12-20T13:52:24.552Z,1.70
2018-12-20T13:54:53.480Z,1.63
2018-12-20T13:57:21.624Z,1.73
2018-12-20T13:59:49.692Z,1.70
2018-12-20T14:02:17.821Z,1.80
2018-12-20T14:04:46.140Z,1.77
2018-12-20T14:07:14.515Z,2.00
2018-12-20T14:09:42.572Z,1.90
2018-12-20T14:12:10.654Z,1.90
2018-12-20T14:14:38.846Z,1.90
2018-12-20T14:17:06.860Z,1.80
2018-12-20T14:19:34.993Z,2.53
2018-12-20T14:22:03.064Z,2.00
2018-12-20T14:24:31.140Z,2.00
2018-12-20T14:26:59.213Z,1.80
2018-12-20T14:29:27.280Z,1.90
2018-12-20T14:31:55.347Z,2.30
2018-12-20T14:34:23.529Z,2.40
2018-12-20T14:36:51.630Z,1.97
2018-12-20T14:39:19.657Z,2.03
2018-12-20T14:41:47.709Z,2.23
2018-12-20T14:44:15.773Z,1.93
2018-12-20T14:46:43.797Z,1.90
2018-12-20T14:49:12.069Z,2.10
2018-12-20T14:51:40.136Z,1.63
2018-12-20T14:54:08.217Z,1.97
2018-12-20T14:56:36.238Z,2.27
2018-12-20T14:59:04.461Z,2.20
2018-12-20T15:01:32.489Z,2.00
2018-12-20T15:04:00.622Z,2.20
2018-12-20T15:06:28.643Z,3.10
2018-12-20T15:08:56.757Z,1.80
2018-12-20T15:11:24.788Z,2.53
2018-12-20T15:13:53.092Z,2.47
2018-12-20T15:16:21.200Z,2.63
2018-12-20T15:18:49.231Z,2.60
2018-12-20T15:21:17.329Z,2.97
2018-12-20T15:23:45.551Z,2.63
2018-12-20T15:26:13.561Z,2.17
2018-12-20T15:28:41.756Z,2.27
2018-12-20T15:31:09.814Z,2.00
2018-12-20T15:33:37.856Z,2.17
2018-12-20T15:36:06.002Z,1.97
2018-12-20T15:38:34.025Z,2.23
2018-12-20T15:41:02.190Z,2.03
2018-12-20T15:43:31.765Z,2.50
2018-12-20T15:45:59.832Z,1.97
2018-12-20T15:48:27.919Z,2.00
2018-12-20T15:50:55.967Z,2.27
2018-12-20T15:53:24.097Z,2.17
2018-12-20T15:55:52.243Z,1.80
2018-12-20T15:58:20.283Z,2.10
2018-12-20T16:00:48.379Z,2.17
2018-12-20T16:03:16.521Z,1.87
2018-12-20T16:05:44.605Z,2.50
2018-12-20T16:08:12.611Z,2.50
2018-12-20T16:10:40.744Z,2.30
2018-12-20T16:13:08.932Z,2.30
2018-12-20T16:15:36.975Z,2.03
2018-12-20T16:18:05.152Z,1.97
2018-12-20T16:20:34.064Z,1.70
2018-12-20T16:23:02.713Z,2.27
2018-12-20T16:25:30.901Z,1.70
2018-12-20T16:27:59.691Z,1.70
2018-12-20T16:30:27.827Z,1.80
2018-12-20T16:32:55.957Z,2.03
2018-12-20T16:35:24.734Z,1.90
2018-12-20T16:37:53.819Z,1.93
2018-12-20T16:40:21.905Z,2.30
2018-12-20T16:42:49.978Z,1.83
2018-12-20T16:45:18.171Z,2.13
2018-12-20T16:47:46.761Z,2.17
2018-12-20T16:50:14.823Z,1.70
2018-12-20T16:52:42.904Z,1.87
2018-12-20T16:55:10.965Z,1.97
2018-12-20T16:57:39.000Z,2.10
2018-12-20T17:00:10.822Z,2.30
2018-12-20T17:02:39.263Z,1.90
2018-12-20T17:05:08.206Z,2.07
2018-12-20T17:07:36.231Z,2.13
2018-12-20T17:10:04.921Z,1.90
2018-12-20T17:12:32.992Z,2.00
2018-12-20T17:15:01.069Z,2.10
2018-12-20T17:17:29.551Z,1.87
2018-12-20T17:19:57.606Z,2.10
2018-12-20T17:22:25.829Z,2.30
2018-12-20T17:24:53.871Z,2.40
2018-12-20T17:27:21.952Z,2.40
2018-12-20T17:29:50.668Z,2.10
2018-12-20T17:32:18.707Z,2.23
2018-12-20T17:34:46.783Z,2.30
2018-12-20T17:37:14.857Z,1.73
2018-12-20T17:39:42.924Z,2.27
2018-12-20T17:42:11.284Z,2.40
2018-12-20T17:44:39.580Z,2.23
2018-12-20T17:47:08.163Z,2.90
2018-12-20T17:49:37.055Z,2.50
2018-12-20T17:52:05.089Z,2.60
2018-12-20T17:54:33.307Z,2.57
2018-12-20T17:57:01.504Z,2.33
2018-12-20T17:59:29.548Z,3.20
2018-12-20T18:01:57.731Z,2.50
2018-12-20T18:04:26.436Z,2.30
2018-12-20T18:06:54.804Z,2.40
2018-12-20T18:09:22.899Z,2.93
2018-12-20T18:11:51.360Z,2.93
2018-12-20T18:14:19.540Z,3.50
2018-12-20T18:16:47.563Z,2.80
2018-12-20T18:19:15.608Z,3.00
2018-12-20T18:21:43.652Z,3.30
2018-12-20T18:24:11.728Z,3.00
2018-12-20T18:26:40.561Z,3.83
2018-12-20T18:29:08.789Z,2.60
2018-12-20T18:31:37.571Z,2.63
2018-12-20T18:34:06.087Z,2.70
2018-12-20T18:36:34.270Z,2.50
2018-12-20T18:39:02.507Z,3.20
2018-12-20T18:41:31.702Z,2.73
2018-12-20T18:43:59.783Z,3.10
2018-12-20T18:46:29.181Z,3.40
2018-12-20T18:48:57.408Z,2.63
2018-12-20T18:51:25.537Z,3.10
2018-12-20T18:53:53.626Z,2.63
2018-12-20T18:56:22.301Z,3.00
2018-12-20T18:58:50.467Z,2.93
2018-12-20T19:01:18.574Z,3.13
2018-12-20T19:03:46.626Z,2.90
2018-12-20T19:06:14.653Z,3.30
2018-12-20T19:08:42.763Z,2.90
2018-12-20T19:11:10.852Z,2.90
2018-12-20T19:13:38.920Z,2.53
2018-12-20T19:16:06.993Z,2.83
2018-12-20T19:18:35.074Z,3.90
2018-12-20T19:21:03.238Z,2.80
2018-12-20T19:23:31.279Z,3.10
2018-12-20T19:25:59.771Z,3.67
2018-12-20T19:28:27.877Z,2.87
2018-12-20T19:30:56.007Z,3.47
2018-12-20T19:33:24.123Z,3.40
2018-12-20T19:35:52.802Z,3.33
2018-12-20T19:38:21.887Z,2.90
2018-12-20T19:40:50.075Z,3.00
2018-12-20T19:43:18.132Z,3.57
2018-12-20T19:45:46.841Z,3.07
2018-12-20T19:48:14.912Z,3.50
2018-12-20T19:50:42.965Z,3.70
2018-12-20T19:53:11.677Z,3.33
2018-12-20T19:55:40.253Z,3.40
2018-12-20T19:58:08.357Z,3.13
2018-12-20T20:00:36.841Z,3.07
2018-12-20T20:03:05.555Z,3.33
2018-12-20T20:05:34.399Z,3.47
2018-12-20T20:08:02.775Z,3.93
2018-12-20T20:10:31.464Z,3.30
2018-12-20T20:12:59.508Z,3.70
2018-12-20T20:15:27.604Z,3.40
2018-12-20T20:17:55.688Z,3.27
2018-12-20T20:20:23.879Z,3.40
2018-12-20T20:22:52.037Z,3.27
2018-12-20T20:25:20.100Z,3.90
2018-12-20T20:27:48.115Z,2.77
2018-12-20T20:30:16.160Z,3.20
2018-12-20T20:32:45.329Z,3.77
2018-12-20T20:35:13.320Z,3.20
2018-12-20T20:37:41.604Z,3.60
2018-12-20T20:40:09.653Z,3.33
2018-12-20T20:42:37.677Z,3.20
2018-12-20T20:45:06.328Z,2.87
2018-12-20T20:47:35.212Z,3.23
2018-12-20T20:50:05.052Z,3.37
2018-12-20T20:52:33.139Z,3.20
2018-12-20T20:55:01.181Z,3.80
2018-12-20T20:57:29.264Z,3.77
2018-12-20T20:59:57.411Z,5.03
2018-12-20T21:02:25.502Z,4.13
2018-12-20T21:04:54.054Z,5.00
2018-12-20T21:07:22.079Z,4.20
2018-12-20T21:09:51.245Z,4.33
2018-12-20T21:12:23.034Z,5.57
2018-12-20T21:14:52.536Z,4.50
2018-12-20T21:17:20.999Z,4.40
2018-12-20T21:19:50.297Z,4.50
2018-12-20T21:22:18.572Z,4.97
2018-12-20T21:24:46.643Z,4.57
2018-12-20T21:27:14.717Z,3.43
2018-12-20T21:29:42.884Z,4.00
2018-12-20T21:32:10.977Z,4.10
2018-12-20T21:34:39.048Z,4.13
2018-12-20T21:37:07.092Z,3.63
2018-12-20T21:39:35.184Z,3.80
2018-12-20T21:42:03.357Z,3.40
2018-12-20T21:44:31.541Z,4.07
2018-12-20T21:46:59.631Z,3.00
2018-12-20T21:49:27.641Z,2.90
2018-12-20T21:51:55.683Z,3.73
2018-12-20T21:54:23.832Z,3.80
2018-12-20T21:56:51.884Z,3.40
2018-12-20T21:59:19.979Z,3.97
2018-12-20T22:01:48.098Z,3.40
2018-12-20T22:04:16.324Z,4.00
2018-12-20T22:06:44.363Z,3.33
2018-12-20T22:09:12.453Z,3.43
2018-12-20T22:11:40.548Z,3.97
2018-12-20T22:14:08.615Z,3.80
2018-12-20T22:16:36.916Z,3.80
2018-12-20T22:19:05.176Z,3.30
2018-12-20T22:21:35.879Z,3.73
2018-12-20T22:24:04.715Z,3.83
2018-12-20T22:26:32.773Z,4.10
2018-12-20T22:29:00.953Z,3.93
2018-12-20T22:31:29.124Z,3.90
2018-12-20T22:33:57.296Z,3.50
2018-12-20T22:36:26.428Z,3.17
2018-12-20T22:38:54.563Z,3.23
2018-12-20T22:41:22.661Z,3.00
2018-12-20T22:43:50.716Z,3.43
2018-12-20T22:46:19.115Z,3.50
2018-12-20T22:48:47.471Z,3.40
2018-12-20T22:51:16.023Z,3.97
2018-12-20T22:53:44.104Z,3.10
2018-12-20T22:56:12.136Z,3.47
2018-12-20T22:58:40.180Z,3.10
2018-12-20T23:01:08.232Z,3.20
2018-12-20T23:03:36.771Z,3.10
2018-12-20T23:06:04.850Z,2.40
2018-12-20T23:08:33.344Z,3.03
2018-12-20T23:11:01.471Z,3.00
2018-12-20T23:13:29.640Z,2.60
2018-12-20T23:15:57.694Z,3.10
2018-12-20T23:18:26.297Z,2.70
2018-12-20T23:20:54.787Z,2.80
2018-12-20T23:23:23.732Z,3.10
2018-12-20T23:25:51.768Z,3.10
2018-12-20T23:28:19.916Z,2.10
2018-12-20T23:30:48.743Z,2.70
2018-12-20T23:33:16.796Z,2.87
2018-12-20T23:35:45.144Z,2.97
2018-12-20T23:38:13.244Z,2.43
2018-12-20T23:40:41.315Z,2.77
2018-12-20T23:43:09.384Z,2.70
2018-12-20T23:45:37.456Z,3.20
2018-12-20T23:48:05.480Z,2.50
2018-12-20T23:50:33.526Z,2.80
2018-12-20T23:53:01.575Z,2.37
2018-12-20T23:55:29.648Z,2.73
2018-12-20T23:57:57.811Z,2.70
